createdAt,value
2017-09-05T00:00:11.485Z,17.86
2017-09-05T00:00:39.469Z,17.9
2017-09-05T00:01:07.394Z,17.87
2017-09-05T00:01:35.441Z,17.9
2017-09-05T00:02:03.738Z,17.86
2017-09-05T00:02:31.784Z,17.9
2017-09-05T00:02:59.946Z,17.8
2017-09-05T00:03:28.123Z,17.87
2017-09-05T00:03:56.163Z,17.86
2017-09-05T00:04:24.294Z,17.86
2017-09-05T00:04:52.297Z,17.84
2017-09-05T00:05:20.294Z,17.96
2017-09-05T00:05:48.374Z,17.86
2017-09-05T00:06:16.529Z,17.81
2017-09-05T00:06:44.459Z,17.88
2017-09-05T00:07:12.605Z,17.8
2017-09-05T00:07:40.673Z,17.9
2017-09-05T00:08:08.720Z,17.87
2017-09-05T00:08:36.793Z,17.87
2017-09-05T00:09:04.838Z,17.87
2017-09-05T00:09:32.985Z,17.9
2017-09-05T00:10:00.895Z,17.87
2017-09-05T00:10:28.826Z,17.88
2017-09-05T00:10:56.929Z,17.88
2017-09-05T00:11:24.742Z,17.84
2017-09-05T00:11:52.706Z,17.86
2017-09-05T00:12:20.824Z,17.86
2017-09-05T00:12:48.830Z,17.88
2017-09-05T00:13:16.991Z,17.88
2017-09-05T00:13:45.132Z,17.84
2017-09-05T00:14:13.275Z,17.9
2017-09-05T00:14:41.315Z,17.9
2017-09-05T00:15:09.316Z,17.88
2017-09-05T00:15:37.400Z,17.88
2017-09-05T00:16:05.413Z,17.87
2017-09-05T00:16:33.368Z,17.87
2017-09-05T00:17:01.293Z,17.83
2017-09-05T00:17:29.356Z,17.88
2017-09-05T00:17:57.496Z,17.86
2017-09-05T00:18:25.634Z,17.86
2017-09-05T00:18:53.591Z,17.8
2017-09-05T00:19:21.741Z,17.8
2017-09-05T00:19:49.854Z,17.79
2017-09-05T00:20:17.805Z,17.79
2017-09-05T00:20:45.832Z,17.84
2017-09-05T00:21:13.865Z,17.8
2017-09-05T00:21:41.889Z,17.83
2017-09-05T00:22:10.056Z,17.79
2017-09-05T00:22:38.227Z,17.79
2017-09-05T00:23:06.326Z,17.86
2017-09-05T00:23:34.486Z,17.84
2017-09-05T00:24:02.603Z,17.84
2017-09-05T00:24:30.617Z,17.86
2017-09-05T00:24:58.668Z,17.86
2017-09-05T00:25:26.848Z,17.87
2017-09-05T00:25:54.987Z,17.88
2017-09-05T00:26:23.019Z,17.8
2017-09-05T00:26:51.080Z,17.79
2017-09-05T00:27:19.199Z,17.77
2017-09-05T00:27:47.103Z,17.83
2017-09-05T00:28:15.040Z,17.79
2017-09-05T00:28:43.099Z,17.79
2017-09-05T00:29:10.948Z,17.76
2017-09-05T00:29:39.050Z,17.77
2017-09-05T00:30:07.115Z,17.69
2017-09-05T00:30:35.152Z,17.74
2017-09-05T00:31:03.053Z,17.68
2017-09-05T00:31:31.211Z,17.73
2017-09-05T00:31:59.159Z,17.68
2017-09-05T00:32:27.260Z,17.77
2017-09-05T00:32:55.388Z,17.74
2017-09-05T00:33:23.367Z,17.73
2017-09-05T00:33:51.459Z,17.76
2017-09-05T00:34:19.409Z,17.74
2017-09-05T00:34:47.450Z,17.66
2017-09-05T00:35:15.486Z,17.66
2017-09-05T00:35:43.542Z,17.65
2017-09-05T00:36:11.655Z,17.66
2017-09-05T00:36:39.655Z,17.74
2017-09-05T00:37:07.692Z,17.69
2017-09-05T00:37:35.843Z,17.69
2017-09-05T00:38:03.654Z,17.63
2017-09-05T00:38:31.720Z,17.6
2017-09-05T00:38:59.744Z,17.47
2017-09-05T00:39:27.867Z,17.54
2017-09-05T00:39:55.692Z,17.49
2017-09-05T00:40:23.848Z,17.49
2017-09-05T00:40:51.993Z,17.52
2017-09-05T00:41:20.039Z,17.52
2017-09-05T00:41:47.950Z,17.52
2017-09-05T00:42:16.005Z,17.54
2017-09-05T00:42:44.140Z,17.42
2017-09-05T00:43:12.070Z,17.43
2017-09-05T00:43:40.166Z,17.43
2017-09-05T00:44:08.369Z,17.46
2017-09-05T00:44:36.428Z,17.43
2017-09-05T00:45:04.547Z,17.46
2017-09-05T00:45:32.529Z,17.43
2017-09-05T00:46:00.487Z,17.43
2017-09-05T00:46:28.662Z,17.46
2017-09-05T00:46:56.839Z,17.52
2017-09-05T00:47:25.032Z,17.43
2017-09-05T00:47:52.972Z,17.45
2017-09-05T00:48:20.959Z,17.46
2017-09-05T00:48:49.015Z,17.49
2017-09-05T00:49:17.048Z,17.43
2017-09-05T00:49:45.006Z,17.52
2017-09-05T00:50:12.917Z,17.6
2017-09-05T00:50:41.043Z,17.5
2017-09-05T00:51:09.098Z,17.52
2017-09-05T00:51:37.054Z,17.54
2017-09-05T00:52:05.219Z,17.52
2017-09-05T00:52:33.282Z,17.5
2017-09-05T00:53:01.336Z,17.52
2017-09-05T00:53:29.262Z,17.49
2017-09-05T00:53:57.316Z,17.46
2017-09-05T00:54:25.403Z,17.45
2017-09-05T00:54:53.514Z,17.54
2017-09-05T00:55:21.656Z,17.49
2017-09-05T00:55:49.780Z,17.47
2017-09-05T00:56:17.769Z,17.49
2017-09-05T00:56:45.919Z,17.45
2017-09-05T00:57:13.920Z,17.45
2017-09-05T00:57:42.059Z,17.5
2017-09-05T00:58:10.106Z,17.42
2017-09-05T00:58:38.111Z,17.42
2017-09-05T00:59:06.147Z,17.43
2017-09-05T00:59:34.182Z,17.42
2017-09-05T01:00:02.212Z,17.31
2017-09-05T01:00:30.332Z,17.35
2017-09-05T01:00:58.332Z,17.3
2017-09-05T01:01:26.391Z,17.32
2017-09-05T01:01:54.513Z,17.24
2017-09-05T01:02:22.432Z,17.24
2017-09-05T01:02:50.612Z,17.24
2017-09-05T01:03:18.742Z,17.13
2017-09-05T01:03:46.671Z,17.2
2017-09-05T01:04:14.766Z,17.18
2017-09-05T01:04:42.823Z,17.18
2017-09-05T01:05:10.774Z,17.13
2017-09-05T01:05:38.803Z,17.1
2017-09-05T01:06:06.743Z,17.07
2017-09-05T01:06:34.930Z,17.1
2017-09-05T01:07:02.854Z,17.02
2017-09-05T01:07:30.918Z,17.09
2017-09-05T01:07:59.149Z,17.07
2017-09-05T01:08:27.250Z,16.99
2017-09-05T01:08:55.446Z,17.05
2017-09-05T01:09:23.602Z,16.99
2017-09-05T01:09:51.710Z,16.99
2017-09-05T01:10:19.733Z,16.99
2017-09-05T01:10:47.670Z,17.05
2017-09-05T01:11:15.846Z,17.07
2017-09-05T01:11:43.792Z,16.99
2017-09-05T01:12:11.841Z,16.97
2017-09-05T01:12:39.922Z,16.88
2017-09-05T01:13:07.968Z,16.91
2017-09-05T01:13:36.046Z,16.95
2017-09-05T01:14:03.982Z,16.82
2017-09-05T01:14:32.130Z,16.81
2017-09-05T01:15:00.176Z,16.9
2017-09-05T01:15:28.312Z,16.87
2017-09-05T01:15:56.443Z,16.74
2017-09-05T01:16:24.575Z,16.77
2017-09-05T01:16:52.515Z,16.85
2017-09-05T01:17:20.624Z,16.9
2017-09-05T01:17:48.772Z,16.88
2017-09-05T01:18:16.908Z,16.84
2017-09-05T01:18:45.035Z,16.81
2017-09-05T01:19:13.187Z,16.76
2017-09-05T01:19:40.865Z,16.84
2017-09-05T01:20:08.890Z,16.77
2017-09-05T01:20:36.896Z,16.82
2017-09-05T01:21:04.948Z,16.77
2017-09-05T01:21:33.004Z,16.74
2017-09-05T01:22:00.930Z,16.77
2017-09-05T01:22:29.073Z,16.74
2017-09-05T01:22:56.960Z,16.76
2017-09-05T01:23:25.116Z,16.72
2017-09-05T01:23:53.205Z,16.69
2017-09-05T01:24:21.356Z,16.72
2017-09-05T01:24:49.453Z,16.73
2017-09-05T01:25:17.614Z,16.69
2017-09-05T01:25:45.644Z,16.69
2017-09-05T01:26:13.766Z,16.73
2017-09-05T01:26:41.786Z,16.7
2017-09-05T01:27:09.948Z,16.66
2017-09-05T01:27:38.096Z,16.77
2017-09-05T01:28:06.090Z,16.82
2017-09-05T01:28:34.275Z,16.76
2017-09-05T01:29:02.309Z,16.73
2017-09-05T01:29:30.438Z,16.82
2017-09-05T01:29:58.266Z,16.81
2017-09-05T01:30:26.240Z,16.77
2017-09-05T01:30:54.243Z,16.84
2017-09-05T01:31:22.184Z,16.74
2017-09-05T01:31:50.154Z,16.82
2017-09-05T01:32:18.174Z,16.76
2017-09-05T01:32:46.012Z,16.8
2017-09-05T01:33:14.043Z,16.7
2017-09-05T01:33:42.112Z,16.72
2017-09-05T01:34:10.135Z,16.72
2017-09-05T01:34:38.312Z,16.74
2017-09-05T01:35:06.438Z,16.7
2017-09-05T01:35:34.569Z,16.72
2017-09-05T01:36:02.615Z,16.67
2017-09-05T01:36:30.521Z,16.8
2017-09-05T01:36:58.666Z,16.77
2017-09-05T01:37:26.788Z,16.66
2017-09-05T01:37:54.800Z,16.67
2017-09-05T01:38:22.604Z,16.67
2017-09-05T01:38:50.653Z,16.7
2017-09-05T01:39:18.808Z,16.69
2017-09-05T01:39:46.968Z,16.67
2017-09-05T01:40:14.980Z,16.69
2017-09-05T01:40:42.938Z,16.67
2017-09-05T01:41:11.007Z,16.69
2017-09-05T01:41:39.122Z,16.72
2017-09-05T01:42:07.042Z,16.59
2017-09-05T01:42:35.065Z,16.66
2017-09-05T01:43:03.336Z,16.65
2017-09-05T01:43:31.465Z,16.62
2017-09-05T01:43:59.395Z,16.65
2017-09-05T01:44:27.310Z,16.62
2017-09-05T01:44:55.264Z,16.69
2017-09-05T01:45:23.229Z,16.66
2017-09-05T01:45:51.185Z,16.62
2017-09-05T01:46:19.316Z,16.66
2017-09-05T01:46:47.438Z,16.67
2017-09-05T01:47:15.502Z,16.67
2017-09-05T01:47:43.636Z,16.65
2017-09-05T01:48:11.739Z,16.69
2017-09-05T01:48:39.863Z,16.65
2017-09-05T01:49:07.993Z,16.66
2017-09-05T01:49:36.064Z,16.51
2017-09-05T01:50:03.980Z,16.62
2017-09-05T01:50:31.984Z,16.63
2017-09-05T01:51:00.025Z,16.54
2017-09-05T01:51:28.179Z,16.59
2017-09-05T01:51:56.348Z,16.57
2017-09-05T01:52:24.525Z,16.58
2017-09-05T01:52:52.585Z,16.63
2017-09-05T01:53:20.832Z,16.57
2017-09-05T01:53:48.749Z,16.54
2017-09-05T01:54:16.916Z,16.51
2017-09-05T01:54:45.028Z,16.57
2017-09-05T01:55:12.945Z,16.58
2017-09-05T01:55:41.021Z,16.54
2017-09-05T01:56:09.179Z,16.49
2017-09-05T01:56:37.333Z,16.45
2017-09-05T01:57:05.520Z,16.54
2017-09-05T01:57:33.645Z,16.49
2017-09-05T01:58:01.792Z,16.45
2017-09-05T01:58:29.925Z,16.44
2017-09-05T01:58:57.837Z,16.44
2017-09-05T01:59:25.872Z,16.42
2017-09-05T01:59:53.688Z,16.44
2017-09-05T02:00:21.613Z,16.39
2017-09-05T02:00:49.627Z,16.4
2017-09-05T02:01:17.774Z,16.4
2017-09-05T02:01:45.801Z,16.36
2017-09-05T02:02:13.815Z,16.36
2017-09-05T02:02:41.988Z,16.45
2017-09-05T02:03:10.246Z,16.45
2017-09-05T02:03:38.172Z,16.45
2017-09-05T02:04:06.303Z,16.44
2017-09-05T02:04:34.414Z,16.51
2017-09-05T02:05:02.329Z,16.49
2017-09-05T02:05:30.436Z,16.47
2017-09-05T02:05:58.462Z,16.42
2017-09-05T02:06:26.578Z,16.42
2017-09-05T02:06:54.507Z,16.37
2017-09-05T02:07:22.413Z,16.37
2017-09-05T02:07:50.572Z,16.36
2017-09-05T02:08:18.682Z,16.32
2017-09-05T02:08:46.826Z,16.42
2017-09-05T02:09:14.892Z,16.36
2017-09-05T02:09:42.986Z,16.37
2017-09-05T02:10:10.881Z,16.29
2017-09-05T02:10:39.054Z,16.29
2017-09-05T02:11:07.170Z,16.29
2017-09-05T02:11:35.258Z,16.3
2017-09-05T02:12:03.399Z,16.27
2017-09-05T02:12:31.523Z,16.25
2017-09-05T02:12:59.721Z,16.21
2017-09-05T02:13:27.750Z,16.25
2017-09-05T02:13:55.887Z,16.13
2017-09-05T02:14:24.034Z,16.18
2017-09-05T02:14:52.061Z,16.16
2017-09-05T02:15:20.107Z,16.17
2017-09-05T02:15:48.232Z,16.21
2017-09-05T02:16:16.218Z,16.21
2017-09-05T02:16:44.132Z,16.16
2017-09-05T02:17:12.090Z,16.18
2017-09-05T02:17:40.203Z,16.17
2017-09-05T02:18:08.357Z,16.18
2017-09-05T02:18:36.499Z,16.13
2017-09-05T02:19:04.574Z,16.17
2017-09-05T02:19:32.730Z,16.21
2017-09-05T02:20:00.879Z,16.17
2017-09-05T02:20:28.976Z,16.21
2017-09-05T02:20:57.053Z,16.11
2017-09-05T02:21:25.112Z,16.13
2017-09-05T02:21:53.163Z,16.1
2017-09-05T02:22:21.239Z,16.17
2017-09-05T02:22:49.367Z,16.08
2017-09-05T02:23:17.094Z,16.1
2017-09-05T02:23:45.372Z,16.1
2017-09-05T02:24:13.425Z,16.16
2017-09-05T02:24:41.512Z,16.08
2017-09-05T02:25:09.646Z,16.18
2017-09-05T02:25:37.546Z,16.02
2017-09-05T02:26:05.582Z,16.11
2017-09-05T02:26:33.611Z,16.13
2017-09-05T02:27:01.755Z,16.17
2017-09-05T02:27:29.794Z,16.13
2017-09-05T02:27:57.790Z,16.13
2017-09-05T02:28:26.051Z,16.13
2017-09-05T02:28:54.174Z,16.08
2017-09-05T02:29:22.244Z,16.07
2017-09-05T02:29:50.289Z,16
2017-09-05T02:30:18.189Z,16.06
2017-09-05T02:30:46.184Z,16.1
2017-09-05T02:31:14.249Z,16.07
2017-09-05T02:31:42.404Z,16
2017-09-05T02:32:10.558Z,16.11
2017-09-05T02:32:38.567Z,16.08
2017-09-05T02:33:06.519Z,16.07
2017-09-05T02:33:34.653Z,16.08
2017-09-05T02:34:02.772Z,16.07
2017-09-05T02:34:30.926Z,16.07
2017-09-05T02:34:59.082Z,15.96
2017-09-05T02:35:27.118Z,15.99
2017-09-05T02:35:55.165Z,15.98
2017-09-05T02:36:23.194Z,16
2017-09-05T02:36:51.292Z,16
2017-09-05T02:37:19.406Z,16.04
2017-09-05T02:37:47.551Z,15.99
2017-09-05T02:38:15.667Z,16
2017-09-05T02:38:43.895Z,16.04
2017-09-05T02:39:11.936Z,16.04
2017-09-05T02:39:39.943Z,15.98
2017-09-05T02:40:08.058Z,15.96
2017-09-05T02:40:36.093Z,16
2017-09-05T02:41:04.284Z,16.04
2017-09-05T02:41:32.211Z,15.99
2017-09-05T02:42:00.237Z,16
2017-09-05T02:42:28.298Z,15.91
2017-09-05T02:42:56.258Z,16.02
2017-09-05T02:43:24.301Z,15.98
2017-09-05T02:43:52.468Z,16.07
2017-09-05T02:44:20.508Z,16.1
2017-09-05T02:44:48.515Z,16.04
2017-09-05T02:45:16.551Z,16.08
2017-09-05T02:45:44.713Z,16.08
2017-09-05T02:46:12.746Z,16.13
2017-09-05T02:46:40.875Z,15.99
2017-09-05T02:47:08.982Z,15.96
2017-09-05T02:47:37.084Z,16.08
2017-09-05T02:48:05.125Z,16.08
2017-09-05T02:48:33.147Z,16.1
2017-09-05T02:49:01.266Z,16.11
2017-09-05T02:49:29.418Z,16.06
2017-09-05T02:49:57.530Z,16.1
2017-09-05T02:50:25.710Z,16
2017-09-05T02:50:53.835Z,16.08
2017-09-05T02:51:21.878Z,16.11
2017-09-05T02:51:50.053Z,16.06
2017-09-05T02:52:18.044Z,16.06
2017-09-05T02:52:46.067Z,16.1
2017-09-05T02:53:14.032Z,16.07
2017-09-05T02:53:42.182Z,16.08
2017-09-05T02:54:10.225Z,16.08
2017-09-05T02:54:38.337Z,16.04
2017-09-05T02:55:06.389Z,16.08
2017-09-05T02:55:34.548Z,15.99
2017-09-05T02:56:02.580Z,16.04
2017-09-05T02:56:30.626Z,16.11
2017-09-05T02:56:58.774Z,16.07
2017-09-05T02:57:26.750Z,16.08
2017-09-05T02:57:54.878Z,16.16
2017-09-05T02:58:22.902Z,16.06
2017-09-05T02:58:50.951Z,16.11
2017-09-05T02:59:19.065Z,16.1
2017-09-05T02:59:47.186Z,16.13
2017-09-05T03:00:15.007Z,16.11
2017-09-05T03:00:43.132Z,16.14
2017-09-05T03:01:11.280Z,16.18
2017-09-05T03:01:39.217Z,16.26
2017-09-05T03:02:07.279Z,16.18
2017-09-05T03:02:35.317Z,16.21
2017-09-05T03:03:03.262Z,16.17
2017-09-05T03:03:31.334Z,16.17
2017-09-05T03:03:59.486Z,16.11
2017-09-05T03:04:27.625Z,16.25
2017-09-05T03:04:55.641Z,16.32
2017-09-05T03:05:23.696Z,16.21
2017-09-05T03:05:51.826Z,16.17
2017-09-05T03:06:19.657Z,16.16
2017-09-05T03:06:47.816Z,16.13
2017-09-05T03:07:15.731Z,16.18
2017-09-05T03:07:43.928Z,16.22
2017-09-05T03:08:11.811Z,16.27
2017-09-05T03:08:40.001Z,16.27
2017-09-05T03:09:08.288Z,16.21
2017-09-05T03:09:36.219Z,16.17
2017-09-05T03:10:04.368Z,16.21
2017-09-05T03:10:32.300Z,16.27
2017-09-05T03:11:00.258Z,16.21
2017-09-05T03:11:28.327Z,16.25
2017-09-05T03:11:56.331Z,16.21
2017-09-05T03:12:24.441Z,16.21
2017-09-05T03:12:52.431Z,16.21
2017-09-05T03:13:20.464Z,16.22
2017-09-05T03:13:48.451Z,16.26
2017-09-05T03:14:16.526Z,16.25
2017-09-05T03:14:44.701Z,16.11
2017-09-05T03:15:12.704Z,16.17
2017-09-05T03:15:40.741Z,16.1
2017-09-05T03:16:08.763Z,16.14
2017-09-05T03:16:36.822Z,16.13
2017-09-05T03:17:04.688Z,16.17
2017-09-05T03:17:32.412Z,16.13
2017-09-05T03:18:00.473Z,16.13
2017-09-05T03:18:28.556Z,16.13
2017-09-05T03:18:56.723Z,16.18
2017-09-05T03:19:24.802Z,16.1
2017-09-05T03:19:52.887Z,16.16
2017-09-05T03:20:21.026Z,16.06
2017-09-05T03:20:49.198Z,16.16
2017-09-05T03:21:17.316Z,16.06
2017-09-05T03:21:45.385Z,16.14
2017-09-05T03:22:13.425Z,16.14
2017-09-05T03:22:41.406Z,16.13
2017-09-05T03:23:09.524Z,16.1
2017-09-05T03:23:37.700Z,16.1
2017-09-05T03:24:05.913Z,16.04
2017-09-05T03:24:33.937Z,16.04
2017-09-05T03:25:02.125Z,16.13
2017-09-05T03:25:29.998Z,16.08
2017-09-05T03:25:57.751Z,16.06
2017-09-05T03:26:25.705Z,16.06
2017-09-05T03:26:53.646Z,16.02
2017-09-05T03:27:21.799Z,16.08
2017-09-05T03:27:49.891Z,16.04
2017-09-05T03:28:18.016Z,16.11
2017-09-05T03:28:46.096Z,16.07
2017-09-05T03:29:14.216Z,16.14
2017-09-05T03:29:42.254Z,16.13
2017-09-05T03:30:10.189Z,16.17
2017-09-05T03:30:38.098Z,16.16
2017-09-05T03:31:06.144Z,16.07
2017-09-05T03:31:34.076Z,16.13
2017-09-05T03:32:02.177Z,16.17
2017-09-05T03:32:30.246Z,16.06
2017-09-05T03:32:58.162Z,16.13
2017-09-05T03:33:26.089Z,16.07
2017-09-05T03:33:54.263Z,16.08
2017-09-05T03:34:22.285Z,16.04
2017-09-05T03:34:50.305Z,16.02
2017-09-05T03:35:18.316Z,16.1
2017-09-05T03:35:46.468Z,15.96
2017-09-05T03:36:14.530Z,16.02
2017-09-05T03:36:42.551Z,15.93
2017-09-05T03:37:10.502Z,15.96
2017-09-05T03:37:38.318Z,15.95
2017-09-05T03:38:06.352Z,16
2017-09-05T03:38:34.494Z,15.93
2017-09-05T03:39:02.438Z,15.92
2017-09-05T03:39:30.431Z,15.96
2017-09-05T03:39:58.530Z,15.89
2017-09-05T03:40:26.520Z,15.88
2017-09-05T03:40:54.532Z,15.92
2017-09-05T03:41:22.649Z,15.91
2017-09-05T03:41:50.582Z,15.92
2017-09-05T03:42:18.421Z,15.88
2017-09-05T03:42:46.361Z,15.91
2017-09-05T03:43:14.541Z,15.84
2017-09-05T03:43:42.585Z,15.88
2017-09-05T03:44:10.790Z,15.88
2017-09-05T03:44:38.817Z,15.88
2017-09-05T03:45:06.981Z,15.83
2017-09-05T03:45:34.882Z,15.83
2017-09-05T03:46:02.952Z,15.88
2017-09-05T03:46:31.122Z,15.91
2017-09-05T03:46:59.184Z,15.83
2017-09-05T03:47:27.230Z,15.83
2017-09-05T03:47:55.374Z,15.89
2017-09-05T03:48:23.509Z,15.81
2017-09-05T03:48:51.428Z,15.83
2017-09-05T03:49:19.654Z,15.88
2017-09-05T03:49:47.696Z,15.77
2017-09-05T03:50:15.452Z,15.74
2017-09-05T03:50:43.389Z,15.74
2017-09-05T03:51:11.490Z,15.75
2017-09-05T03:51:39.655Z,15.71
2017-09-05T03:52:07.788Z,15.7
2017-09-05T03:52:35.757Z,15.62
2017-09-05T03:53:03.827Z,15.62
2017-09-05T03:53:31.811Z,15.73
2017-09-05T03:53:59.854Z,15.7
2017-09-05T03:54:28.113Z,15.7
2017-09-05T03:54:56.248Z,15.62
2017-09-05T03:55:24.301Z,15.63
2017-09-05T03:55:52.313Z,15.65
2017-09-05T03:56:20.263Z,15.68
2017-09-05T03:56:48.386Z,15.65
2017-09-05T03:57:16.438Z,15.56
2017-09-05T03:57:44.469Z,15.55
2017-09-05T03:58:12.581Z,15.58
2017-09-05T03:58:40.682Z,15.45
2017-09-05T03:59:08.790Z,15.52
2017-09-05T03:59:37.052Z,15.51
2017-09-05T04:00:05.240Z,15.45
2017-09-05T04:00:33.309Z,15.52
2017-09-05T04:01:01.337Z,15.44
2017-09-05T04:01:29.362Z,15.52
2017-09-05T04:01:57.353Z,15.49
2017-09-05T04:02:25.385Z,15.44
2017-09-05T04:02:53.435Z,15.37
2017-09-05T04:03:21.462Z,15.41
2017-09-05T04:03:49.362Z,15.4
2017-09-05T04:04:17.512Z,15.34
2017-09-05T04:04:45.781Z,15.38
2017-09-05T04:05:13.797Z,15.38
2017-09-05T04:05:41.819Z,15.51
2017-09-05T04:06:09.766Z,15.47
2017-09-05T04:06:37.868Z,15.41
2017-09-05T04:07:05.986Z,15.52
2017-09-05T04:07:33.998Z,15.49
2017-09-05T04:08:02.125Z,15.47
2017-09-05T04:08:30.245Z,15.45
2017-09-05T04:08:58.303Z,15.52
2017-09-05T04:09:26.523Z,15.45
2017-09-05T04:09:54.577Z,15.53
2017-09-05T04:10:22.669Z,15.43
2017-09-05T04:10:50.644Z,15.45
2017-09-05T04:11:18.683Z,15.55
2017-09-05T04:11:46.737Z,15.62
2017-09-05T04:12:14.873Z,15.49
2017-09-05T04:12:42.984Z,15.53
2017-09-05T04:13:10.956Z,15.53
2017-09-05T04:13:38.963Z,15.44
2017-09-05T04:14:07.102Z,15.47
2017-09-05T04:14:35.130Z,15.45
2017-09-05T04:15:03.273Z,15.4
2017-09-05T04:15:31.310Z,15.4
2017-09-05T04:15:59.338Z,15.43
2017-09-05T04:16:27.309Z,15.37
2017-09-05T04:16:55.462Z,15.44
2017-09-05T04:17:23.523Z,15.38
2017-09-05T04:17:51.653Z,15.38
2017-09-05T04:18:19.672Z,15.35
2017-09-05T04:18:47.738Z,15.35
2017-09-05T04:19:15.765Z,15.3
2017-09-05T04:19:43.899Z,15.26
2017-09-05T04:20:12.047Z,15.25
2017-09-05T04:20:40.101Z,15.37
2017-09-05T04:21:08.121Z,15.3
2017-09-05T04:21:36.241Z,15.3
2017-09-05T04:22:04.059Z,15.26
2017-09-05T04:22:32.085Z,15.33
2017-09-05T04:23:00.155Z,15.27
2017-09-05T04:23:28.154Z,15.23
2017-09-05T04:23:56.194Z,15.25
2017-09-05T04:24:24.216Z,15.37
2017-09-05T04:24:52.054Z,15.35
2017-09-05T04:25:20.103Z,15.3
2017-09-05T04:25:48.089Z,15.23
2017-09-05T04:26:16.109Z,15.23
2017-09-05T04:26:44.130Z,15.22
2017-09-05T04:27:12.309Z,15.22
2017-09-05T04:27:40.271Z,15.16
2017-09-05T04:28:08.382Z,15.16
2017-09-05T04:28:36.369Z,15.18
2017-09-05T04:29:04.385Z,15.18
2017-09-05T04:29:32.524Z,15.19
2017-09-05T04:30:00.574Z,15.15
2017-09-05T04:30:28.695Z,15.16
2017-09-05T04:30:56.844Z,15.2
2017-09-05T04:31:24.927Z,15.18
2017-09-05T04:31:52.827Z,15.18
2017-09-05T04:32:20.899Z,15.18
2017-09-05T04:32:48.835Z,15.16
2017-09-05T04:33:16.839Z,15.2
2017-09-05T04:33:44.766Z,15.25
2017-09-05T04:34:12.807Z,15.23
2017-09-05T04:34:40.931Z,15.19
2017-09-05T04:35:08.955Z,15.19
2017-09-05T04:35:36.962Z,15.12
2017-09-05T04:36:04.991Z,15.1
2017-09-05T04:36:33.163Z,15.07
2017-09-05T04:37:01.075Z,15.07
2017-09-05T04:37:29.057Z,15.1
2017-09-05T04:37:57.170Z,15.1
2017-09-05T04:38:25.090Z,15.01
2017-09-05T04:38:53.189Z,15.07
2017-09-05T04:39:21.232Z,15.05
2017-09-05T04:39:49.435Z,15.04
2017-09-05T04:40:17.597Z,15.01
2017-09-05T04:40:45.671Z,15.04
2017-09-05T04:41:13.694Z,15.07
2017-09-05T04:41:41.798Z,15.01
2017-09-05T04:42:09.843Z,14.95
2017-09-05T04:42:37.991Z,15.01
2017-09-05T04:43:06.057Z,14.89
2017-09-05T04:43:34.198Z,14.95
2017-09-05T04:44:02.166Z,14.93
2017-09-05T04:44:30.273Z,14.97
2017-09-05T04:44:58.368Z,14.97
2017-09-05T04:45:26.321Z,14.97
2017-09-05T04:45:54.311Z,15.04
2017-09-05T04:46:22.355Z,15
2017-09-05T04:46:50.484Z,15.08
2017-09-05T04:47:18.538Z,15.01
2017-09-05T04:47:46.641Z,15.02
2017-09-05T04:48:14.746Z,15.04
2017-09-05T04:48:42.864Z,15
2017-09-05T04:49:10.914Z,15.01
2017-09-05T04:49:39.042Z,15.01
2017-09-05T04:50:07.111Z,15.04
2017-09-05T04:50:35.260Z,15.04
2017-09-05T04:51:03.298Z,15
2017-09-05T04:51:31.353Z,14.98
2017-09-05T04:51:59.312Z,15.02
2017-09-05T04:52:27.347Z,15
2017-09-05T04:52:55.411Z,15
2017-09-05T04:53:23.538Z,15.05
2017-09-05T04:53:51.653Z,14.93
2017-09-05T04:54:19.801Z,14.94
2017-09-05T04:54:47.933Z,14.98
2017-09-05T04:55:16.081Z,14.85
2017-09-05T04:55:44.125Z,15
2017-09-05T04:56:12.148Z,14.94
2017-09-05T04:56:40.193Z,14.98
2017-09-05T04:57:08.102Z,14.93
2017-09-05T04:57:36.140Z,14.93
2017-09-05T04:58:04.173Z,14.97
2017-09-05T04:58:32.278Z,14.98
2017-09-05T04:59:00.124Z,14.98
2017-09-05T04:59:28.049Z,15.02
2017-09-05T04:59:56.297Z,14.98
2017-09-05T05:00:24.102Z,14.98
2017-09-05T05:00:52.324Z,15
2017-09-05T05:01:20.533Z,14.98
2017-09-05T05:01:48.409Z,15
2017-09-05T05:02:16.528Z,14.98
2017-09-05T05:02:44.461Z,15.02
2017-09-05T05:03:12.487Z,15.05
2017-09-05T05:03:40.614Z,15.07
2017-09-05T05:04:08.335Z,15.05
2017-09-05T05:04:36.391Z,15.05
2017-09-05T05:05:04.617Z,15.07
2017-09-05T05:05:32.521Z,15.08
2017-09-05T05:06:00.693Z,15.04
2017-09-05T05:06:28.742Z,15.05
2017-09-05T05:06:56.714Z,15.07
2017-09-05T05:07:24.744Z,15.05
2017-09-05T05:07:52.767Z,14.98
2017-09-05T05:08:20.676Z,15.02
2017-09-05T05:08:48.838Z,15.01
2017-09-05T05:09:16.862Z,15.02
2017-09-05T05:09:44.889Z,15.08
2017-09-05T05:10:13.122Z,14.98
2017-09-05T05:10:41.135Z,15.01
2017-09-05T05:11:09.228Z,15.04
2017-09-05T05:11:37.249Z,14.94
2017-09-05T05:12:05.327Z,15.01
2017-09-05T05:12:33.488Z,14.95
2017-09-05T05:13:01.634Z,14.98
2017-09-05T05:13:29.775Z,14.85
2017-09-05T05:13:57.673Z,15.01
2017-09-05T05:14:25.487Z,14.93
2017-09-05T05:14:53.621Z,14.89
2017-09-05T05:15:21.876Z,14.83
2017-09-05T05:15:49.933Z,14.89
2017-09-05T05:16:17.935Z,14.9
2017-09-05T05:16:46.089Z,14.83
2017-09-05T05:17:14.123Z,14.86
2017-09-05T05:17:42.135Z,14.9
2017-09-05T05:18:10.054Z,14.87
2017-09-05T05:18:38.057Z,14.85
2017-09-05T05:19:06.212Z,14.86
2017-09-05T05:19:34.267Z,14.82
2017-09-05T05:20:02.388Z,14.82
2017-09-05T05:20:30.649Z,14.85
2017-09-05T05:20:58.687Z,14.83
2017-09-05T05:21:26.750Z,14.71
2017-09-05T05:21:54.798Z,14.75
2017-09-05T05:22:22.832Z,14.71
2017-09-05T05:22:50.978Z,14.75
2017-09-05T05:23:19.095Z,14.66
2017-09-05T05:23:47.020Z,14.7
2017-09-05T05:24:15.018Z,14.6
2017-09-05T05:24:43.153Z,14.6
2017-09-05T05:25:11.319Z,14.61
2017-09-05T05:25:39.374Z,14.6
2017-09-05T05:26:07.405Z,14.66
2017-09-05T05:26:35.542Z,14.59
2017-09-05T05:27:03.386Z,14.61
2017-09-05T05:27:31.406Z,14.61
2017-09-05T05:27:59.325Z,14.64
2017-09-05T05:28:27.384Z,14.64
2017-09-05T05:28:55.485Z,14.64
2017-09-05T05:29:23.612Z,14.66
2017-09-05T05:29:51.720Z,14.66
2017-09-05T05:30:19.850Z,14.64
2017-09-05T05:30:47.919Z,14.77
2017-09-05T05:31:15.954Z,14.71
2017-09-05T05:31:44.003Z,14.69
2017-09-05T05:32:11.964Z,14.8
2017-09-05T05:32:39.986Z,14.75
2017-09-05T05:33:08.002Z,14.75
2017-09-05T05:33:36.034Z,14.71
2017-09-05T05:34:03.933Z,14.64
2017-09-05T05:34:31.867Z,14.63
2017-09-05T05:34:59.704Z,14.6
2017-09-05T05:35:27.861Z,14.66
2017-09-05T05:35:55.989Z,14.63
2017-09-05T05:36:24.216Z,14.56
2017-09-05T05:36:52.346Z,14.57
2017-09-05T05:37:20.293Z,14.67
2017-09-05T05:37:48.496Z,14.63
2017-09-05T05:38:16.623Z,14.6
2017-09-05T05:38:44.767Z,14.53
2017-09-05T05:39:12.794Z,14.51
2017-09-05T05:39:41.077Z,14.53
2017-09-05T05:40:09.052Z,14.52
2017-09-05T05:40:37.236Z,14.48
2017-09-05T05:41:05.401Z,14.49
2017-09-05T05:41:33.510Z,14.48
2017-09-05T05:42:01.531Z,14.6
2017-09-05T05:42:29.569Z,14.56
2017-09-05T05:42:57.539Z,14.53
2017-09-05T05:43:25.573Z,14.57
2017-09-05T05:43:53.638Z,14.63
2017-09-05T05:44:21.741Z,14.63
2017-09-05T05:44:49.849Z,14.64
2017-09-05T05:45:17.885Z,14.6
2017-09-05T05:45:46.116Z,14.69
2017-09-05T05:46:14.221Z,14.71
2017-09-05T05:46:42.177Z,14.63
2017-09-05T05:47:10.241Z,14.71
2017-09-05T05:47:38.089Z,14.59
2017-09-05T05:48:06.141Z,14.61
2017-09-05T05:48:34.205Z,14.63
2017-09-05T05:49:02.392Z,14.59
2017-09-05T05:49:30.588Z,14.59
2017-09-05T05:49:58.741Z,14.57
2017-09-05T05:50:26.863Z,14.57
2017-09-05T05:50:54.975Z,14.69
2017-09-05T05:51:23.022Z,14.63
2017-09-05T05:51:51.205Z,14.6
2017-09-05T05:52:19.473Z,14.6
2017-09-05T05:52:47.492Z,14.59
2017-09-05T05:53:15.528Z,14.66
2017-09-05T05:53:43.665Z,14.66
2017-09-05T05:54:11.784Z,14.64
2017-09-05T05:54:39.845Z,14.57
2017-09-05T05:55:07.777Z,14.63
2017-09-05T05:55:36.026Z,14.63
2017-09-05T05:56:04.062Z,14.63
2017-09-05T05:56:32.240Z,14.67
2017-09-05T05:57:00.255Z,14.66
2017-09-05T05:57:28.311Z,14.6
2017-09-05T05:57:56.396Z,14.66
2017-09-05T05:58:24.515Z,14.63
2017-09-05T05:58:52.687Z,14.7
2017-09-05T05:59:20.761Z,14.63
2017-09-05T05:59:48.939Z,14.63
2017-09-05T06:00:17.104Z,14.6
2017-09-05T06:00:45.182Z,14.59
2017-09-05T06:01:13.305Z,14.53
2017-09-05T06:01:41.449Z,14.51
2017-09-05T06:02:09.389Z,14.49
2017-09-05T06:02:37.228Z,14.45
2017-09-05T06:03:05.337Z,14.44